Terminal Aerodrome Forecast
Issued by NWS

Home | Current Version | Previous Version | Text Only | Print | Product List | Glossary On
Versions: 1 2 3 4 5 6 7 8 9 10 11 12 13 14 15 16 17 18 19
000
FTUS41 KBGM 302300
TAFITH
TAF
KITH 302334Z 3100/3124 17010KT P6SM SCT020
      TEMPO 3102/3106 BKN020
     FM310600 17007KT P6SM OVC018
     FM311000 18007KT 5SM BR OVC012
     FM311400 20009KT P6SM BKN020
      TEMPO 3114/3118 4SM -SHRA OVC012=

USA.gov is the U.S. government's official web portal to all federal, state and local government web resources and services.